Pagina principale
METAR-TAF:

METAR-TAF

Aeroporti :

Aeroporto internazionale di Banja Luka

Banja Luka, Bosnia-Erzegovina

latitudine: 44-47N, longitudine: 017-13E, altezza: 156 m

Osservazione

Il bollettino è stato emesso 14 minuti fa, alle 02:00 UTC
Vento 2 kt da est
Temperature 8°C
Umidità 93%
Pressione 1014 hPa
Visibilità 10 km o più
nessuna nube inferiore a 1500 m e nessun cumulonembo

METAR: LQBK 160200Z 10002KT CAVOK 08/07 Q1014 NOSIG

Ora: 04:14 (02:14 UTC)

Previsione

Il bollettino è stato emesso 3 ore e 14 minuti fa, alle 23:00 UTC
Previsione valida dal 16 alle 00 UTC al 16 alle 24 UTC
Vento 5 kt da sud
Visibilità 10 km o più
nessuna nube inferiore a 1500 m e nessun cumulonembo
Probabilità 30% :
Temporaneamente
dal 16 alle 13 UTC al 16 alle 17 UTC
Poco nuvoloso ad un'altezza di 3500 ft, Cumulo congesto.
Nuvoloso ad un'altezza di 4000 ft
rovesci di pioggia

TAF: LQBK 152300Z 1600/1624 18005KT CAVOK TX24/1613Z TN09/1605Z PROB30 TEMPO 1613/1617 SHRA FEW035TCU BKN040

Osservazioni e previsioni meteorologiche di più di 4000 aeroporti (messaggi METAR e TAF).

Le stazioni disponibili sono rappresentate dai dischi gialli e rossi sulla carta.

Puntare il mouse per vedere il nome della stazione.

Clicca sopra per visualizzare le osservazioni e previsioni meteorologiche.

Per cambiare la mappa : fare clic sui pulsanti verdi con una croce nera per ingrandire, il pulsante verde con un trattino per diminuire, o sulla freccia verde per le mappe adiacenti.


METAR-TAF: